createdAt,value
2022-10-11T00:00:00.124Z,18.1
2022-10-11T00:05:00.098Z,16.8
2022-10-11T00:10:00.102Z,16.8
2022-10-11T00:15:00.105Z,18.7
2022-10-11T00:20:00.101Z,18.7
2022-10-11T00:25:00.151Z,14.3
2022-10-11T00:30:00.111Z,14.3
2022-10-11T00:35:00.089Z,21.6
2022-10-11T00:40:00.108Z,21.6
2022-10-11T00:45:00.117Z,15.3
2022-10-11T00:50:00.100Z,15.3
2022-10-11T00:55:00.127Z,16.9
2022-10-11T01:00:00.123Z,16.9
2022-10-11T01:05:18.223Z,15.8
2022-10-11T01:10:00.105Z,15.8
2022-10-11T01:15:00.109Z,17.6
2022-10-11T01:20:00.091Z,17.6
2022-10-11T01:25:00.104Z,23.7
2022-10-11T01:30:00.107Z,23.7
2022-10-11T01:35:00.115Z,19.2
2022-10-11T01:40:00.185Z,19.2
2022-10-11T01:45:00.103Z,20.3
2022-10-11T01:50:00.103Z,20.3
2022-10-11T01:55:15.602Z,19.8
2022-10-11T02:00:00.112Z,19.8
2022-10-11T02:05:00.123Z,19.2
2022-10-11T02:10:00.126Z,19.2
2022-10-11T02:15:00.118Z,20.5
2022-10-11T02:20:00.108Z,20.5
2022-10-11T02:25:00.285Z,17.7
2022-10-11T02:30:00.109Z,17.7
2022-10-11T02:35:00.110Z,19.3
2022-10-11T02:40:00.129Z,19.3
2022-10-11T02:45:00.118Z,21.2
2022-10-11T02:50:00.124Z,21.2
2022-10-11T02:55:00.218Z,21.9
2022-10-11T03:00:00.112Z,21.9
2022-10-11T03:05:00.106Z,22.1
2022-10-11T03:10:00.129Z,22.1
2022-10-11T03:15:00.120Z,22.4
2022-10-11T03:20:00.102Z,22.4
2022-10-11T03:25:03.863Z,20.8
2022-10-11T03:30:00.151Z,20.8
2022-10-11T03:35:00.107Z,23.3
2022-10-11T03:40:00.164Z,23.3
2022-10-11T03:45:00.123Z,20
2022-10-11T03:50:00.130Z,20
2022-10-11T03:55:00.129Z,22.3
2022-10-11T04:00:00.118Z,22.3
2022-10-11T04:05:00.101Z,24.3
2022-10-11T04:10:00.213Z,24.3
2022-10-11T04:15:00.106Z,20.2
2022-10-11T04:20:00.097Z,20.2
2022-10-11T04:25:00.130Z,19.7
2022-10-11T04:30:00.104Z,19.7
2022-10-11T04:35:00.104Z,20.1
2022-10-11T04:40:00.160Z,20.1
2022-10-11T04:45:00.149Z,20.5
2022-10-11T04:50:00.132Z,20.5
2022-10-11T04:55:00.137Z,22.8
2022-10-11T05:00:00.121Z,22.8
2022-10-11T05:05:00.109Z,19
2022-10-11T05:10:00.121Z,19
2022-10-11T05:15:00.124Z,19.2
2022-10-11T05:20:00.115Z,19.2
2022-10-11T05:25:00.344Z,19.4
2022-10-11T05:30:00.108Z,19.4
2022-10-11T05:35:00.114Z,13.7
2022-10-11T05:40:00.141Z,13.7
2022-10-11T05:45:00.103Z,19.3
2022-10-11T05:50:00.123Z,19.3
2022-10-11T05:55:00.118Z,18.6
2022-10-11T06:00:00.103Z,18.6
2022-10-11T06:05:00.110Z,15.5
2022-10-11T06:10:00.154Z,15.5
2022-10-11T06:15:00.118Z,19.4
2022-10-11T06:20:00.109Z,19.4
2022-10-11T06:25:00.148Z,11.7
2022-10-11T06:30:00.386Z,11.7
2022-10-11T06:35:00.108Z,11.4
2022-10-11T06:40:00.133Z,11.4
2022-10-11T06:45:00.104Z,10.7
2022-10-11T06:50:00.102Z,10.7
2022-10-11T06:55:00.153Z,11.1
2022-10-11T07:00:00.101Z,11.1
2022-10-11T07:05:00.122Z,9.6
2022-10-11T07:10:00.156Z,9.6
2022-10-11T07:15:00.102Z,8.2
2022-10-11T07:20:00.109Z,8.2
2022-10-11T07:25:00.228Z,9.5
2022-10-11T07:30:00.126Z,9.5
2022-10-11T07:35:00.112Z,9.7
2022-10-11T07:40:00.130Z,9.7
2022-10-11T07:45:00.117Z,9.3
2022-10-11T07:50:00.113Z,9.3
2022-10-11T07:55:00.244Z,8.7
2022-10-11T08:00:00.099Z,8.7
2022-10-11T08:05:00.105Z,11.6
2022-10-11T08:10:00.104Z,11.6
2022-10-11T08:15:00.107Z,8.2
2022-10-11T08:20:00.111Z,8.2
2022-10-11T08:25:00.178Z,13.1
2022-10-11T08:30:00.118Z,13.1
2022-10-11T08:35:00.090Z,9.6
2022-10-11T08:40:00.124Z,9.6
2022-10-11T08:45:10.892Z,13.3
2022-10-11T08:50:00.112Z,13.3
2022-10-11T08:55:00.138Z,11.7
2022-10-11T09:00:00.134Z,11.7
2022-10-11T09:05:00.086Z,12.1
2022-10-11T09:10:00.123Z,12.1
2022-10-11T09:15:00.118Z,9.8
2022-10-11T09:20:00.106Z,9.8
2022-10-11T09:25:00.154Z,10.6
2022-10-11T09:30:00.136Z,10.6
2022-10-11T09:35:00.110Z,9.1
2022-10-11T09:40:00.126Z,9.1
2022-10-11T09:45:00.112Z,14.4
2022-10-11T09:50:00.100Z,14.4
2022-10-11T09:55:00.113Z,10.7
2022-10-11T10:00:00.095Z,10.7
2022-10-11T10:05:00.095Z,12.7
2022-10-11T10:10:00.125Z,12.7
2022-10-11T10:15:00.118Z,9.9
2022-10-11T10:20:00.106Z,9.9
2022-10-11T10:25:00.193Z,11.9
2022-10-11T10:30:00.093Z,11.9
2022-10-11T10:35:00.098Z,11
2022-10-11T10:40:00.112Z,11
2022-10-11T10:45:00.105Z,9.1
2022-10-11T10:50:00.162Z,9.1
2022-10-11T10:55:00.165Z,10.5
2022-10-11T11:00:00.108Z,10.5
2022-10-11T11:10:00.125Z,10.3
2022-10-11T11:15:00.095Z,9.9
2022-10-11T11:20:00.111Z,9.9
2022-10-11T11:25:00.171Z,9
2022-10-11T11:30:00.104Z,9
2022-10-11T11:35:00.112Z,11.2
2022-10-11T11:40:00.133Z,11.2
2022-10-11T11:45:00.104Z,12
2022-10-11T11:50:00.122Z,12
2022-10-11T11:55:03.698Z,12.8
2022-10-11T12:00:00.092Z,12.8
2022-10-11T12:05:00.094Z,12.3
2022-10-11T12:10:00.124Z,12.3
2022-10-11T12:15:00.083Z,12.7
2022-10-11T12:20:00.109Z,12.7
2022-10-11T12:25:00.158Z,8.8
2022-10-11T12:30:00.112Z,8.8
2022-10-11T12:35:00.090Z,8.3
2022-10-11T12:40:00.100Z,8.3
2022-10-11T12:45:00.108Z,10.7
2022-10-11T12:50:00.105Z,10.7
2022-10-11T12:55:00.133Z,12.5
2022-10-11T13:00:00.121Z,12.5
2022-10-11T13:05:00.148Z,9.7
2022-10-11T13:10:00.136Z,9.7
2022-10-11T13:15:00.127Z,8.5
2022-10-11T13:20:00.126Z,8.5
2022-10-11T13:25:00.186Z,11.1
2022-10-11T13:30:00.119Z,11.1
2022-10-11T13:35:00.122Z,9.9
2022-10-11T13:40:00.106Z,9.9
2022-10-11T13:45:00.101Z,10.3
2022-10-11T13:50:00.103Z,10.3
2022-10-11T13:55:00.155Z,8.1
2022-10-11T14:00:00.087Z,8.1
2022-10-11T14:05:00.111Z,7.8
2022-10-11T14:10:00.159Z,7.8
2022-10-11T14:15:00.100Z,6.5
2022-10-11T14:20:05.011Z,6.5
2022-10-11T14:25:00.161Z,8
2022-10-11T14:30:23.765Z,8
2022-10-11T14:35:00.132Z,6.7
2022-10-11T14:40:00.178Z,6.7
2022-10-11T14:45:00.116Z,8.9
2022-10-11T14:50:00.131Z,8.9
2022-10-11T14:55:00.153Z,7.1
2022-10-11T15:00:00.092Z,7.1
2022-10-11T15:05:00.096Z,7.9
2022-10-11T15:10:00.150Z,7.9
2022-10-11T15:15:00.110Z,7.4
2022-10-11T15:20:00.109Z,7.4
2022-10-11T15:25:00.198Z,7.6
2022-10-11T15:30:00.109Z,7.6
2022-10-11T15:35:00.109Z,6.7
2022-10-11T15:40:00.250Z,6.7
2022-10-11T15:45:00.123Z,6.3
2022-10-11T15:50:00.166Z,6.3
2022-10-11T15:55:00.198Z,8.5
2022-10-11T16:00:00.217Z,8.5
2022-10-11T16:05:00.126Z,9.4
2022-10-11T16:10:00.136Z,9.4
2022-10-11T16:15:00.115Z,8.1
2022-10-11T16:20:00.106Z,8.1
2022-10-11T16:25:00.111Z,8.1
2022-10-11T16:30:00.089Z,8.1
2022-10-11T16:35:00.097Z,7
2022-10-11T16:40:00.117Z,7
2022-10-11T16:45:00.095Z,8.4
2022-10-11T16:50:00.131Z,8.4
2022-10-11T16:55:00.106Z,9.1
2022-10-11T17:00:00.104Z,9.1
2022-10-11T17:05:00.085Z,7.1
2022-10-11T17:10:00.154Z,7.1
2022-10-11T17:15:00.085Z,6.1
2022-10-11T17:20:00.116Z,6.1
2022-10-11T17:25:00.167Z,7.4
2022-10-11T17:30:00.093Z,7.4
2022-10-11T17:35:00.095Z,10.1
2022-10-11T17:40:00.184Z,10.1
2022-10-11T17:45:00.110Z,6.1
2022-10-11T17:50:00.110Z,6.1
2022-10-11T17:55:00.143Z,6
2022-10-11T18:00:00.106Z,6
2022-10-11T18:05:00.105Z,7.3
2022-10-11T18:10:00.112Z,7.3
2022-10-11T18:15:00.106Z,5.6
2022-10-11T18:20:00.092Z,5.6
2022-10-11T18:25:00.228Z,7.4
2022-10-11T18:30:00.087Z,7.4
2022-10-11T18:35:00.101Z,8.4
2022-10-11T18:40:00.109Z,8.4
2022-10-11T18:45:00.107Z,8.3
2022-10-11T18:50:00.144Z,8.3
2022-10-11T18:55:00.139Z,6.5
2022-10-11T19:00:04.018Z,6.5
2022-10-11T19:05:00.106Z,10.2
2022-10-11T19:10:00.141Z,10.2
2022-10-11T19:15:00.113Z,6.1
2022-10-11T19:20:00.105Z,6.1
2022-10-11T19:25:00.147Z,7.7
2022-10-11T19:30:00.112Z,7.7
2022-10-11T19:35:00.119Z,7.6
2022-10-11T19:40:00.130Z,7.6
2022-10-11T19:45:00.096Z,14.7
2022-10-11T19:50:00.094Z,14.7
2022-10-11T19:55:00.128Z,11.7
2022-10-11T20:00:00.095Z,11.7
2022-10-11T20:05:00.091Z,12
2022-10-11T20:10:00.187Z,12
2022-10-11T20:15:00.111Z,9.7
2022-10-11T20:20:00.104Z,9.7
2022-10-11T20:25:00.147Z,7.5
2022-10-11T20:30:00.102Z,7.5
2022-10-11T20:35:00.101Z,9.9
2022-10-11T20:40:00.102Z,9.9
2022-10-11T20:45:00.127Z,8.4
2022-10-11T20:50:00.101Z,8.4
2022-10-11T20:55:00.138Z,11.5
2022-10-11T21:00:00.088Z,11.5
2022-10-11T21:05:00.100Z,9.8
2022-10-11T21:10:00.114Z,9.8
2022-10-11T21:15:00.264Z,7.7
2022-10-11T21:20:00.119Z,7.7
2022-10-11T21:25:00.256Z,8.3
2022-10-11T21:30:00.091Z,8.3
2022-10-11T21:35:00.123Z,9.7
2022-10-11T21:40:00.142Z,9.7
2022-10-11T21:45:00.113Z,9.6
2022-10-11T21:50:00.110Z,9.6
2022-10-11T21:55:00.160Z,8.6
2022-10-11T22:00:00.109Z,8.6
2022-10-11T22:05:00.107Z,11.9
2022-10-11T22:10:00.134Z,11.9
2022-10-11T22:15:00.113Z,8.9
2022-10-11T22:20:00.124Z,8.9
2022-10-11T22:25:00.162Z,9.6
2022-10-11T22:30:00.101Z,9.6
2022-10-11T22:35:00.107Z,11.3
2022-10-11T22:40:00.170Z,11.3
2022-10-11T22:45:00.104Z,11.4
2022-10-11T22:50:00.112Z,11.4
2022-10-11T22:55:00.161Z,10.3
2022-10-11T23:00:00.132Z,10.3
2022-10-11T23:05:00.113Z,11.7
2022-10-11T23:10:00.149Z,11.7
2022-10-11T23:15:00.123Z,8.7
2022-10-11T23:20:00.103Z,8.7
2022-10-11T23:25:00.196Z,10.4
2022-10-11T23:30:00.126Z,10.4
2022-10-11T23:35:00.119Z,9.6
2022-10-11T23:40:00.144Z,9.6
2022-10-11T23:45:00.117Z,10.4
2022-10-11T23:50:00.232Z,10.4
2022-10-11T23:55:00.168Z,11.5
